Aérodrome :
LOGIN :

S'inscrire | Disclaimer

   EN    FR    IT 

 










Légende :    VFR   VFR Marginal   IFR   IFR Intensif   IFR Très Intensif
Visi : 
Plafond : 
>= 8 km
>= 3000ft
5 à 8 km
1000 à 3000 ft
1500m à 5 km
500 à 1000 ft
800 à 1500m
200 à 500 ft
< 800m
< 200 ft
Symboles :   Orages  Brouillard  Fortes neiges  Fortes précipitations  Vent > 20 kt
SIGMETs :   Divers  Orages  Givrage  Turbulence  Onde Orograph.  Cendres Volcan.






- Altitude de l'aérodrome : 19 ft
- Code IATA : VAA


EFVA - Vaasa

DERNIER METAR :
  • 300120Z AUTO 21005KT 9999 OVC037 08/05 Q1007

METARs EXPIRÉS :
  • 300050Z AUTO 22006KT 190V280 9999 OVC038 08/05 Q1007
  • 300020Z AUTO 20006KT 9999 OVC038 08/06 Q1006
  • 292350Z AUTO 22005KT 9999 OVC037 08/06 Q1006
  • 292320Z AUTO 21006KT 9999 OVC037 08/06 Q1006
  • 292250Z AUTO 21006KT 9999 OVC036 08/06 Q1006

TAF TAF EFVA
Valide du 30 à 00h jusqu'au 31 à 00h UTC


292324Z 3000/3024 23005KT 9999 BKN030
TEMPO 3002/3012 BKN012
PROB30 3003/3008 2000 BR BKN003



MET'MAP, la Météo Aéronautique d'un coup d'oeil ! - Copyright ORBIFLY Décembre 2007 - Disclaimer

ORBIFLY MET'MAP TEAM :

Programmation & Développement : Alexandra Zaïnal
Sur une idée originale de : Baudouin d'Aumeries
Assistance à la programmation : Marc-Olivier Méhu
Soutien technique & logistique : Manuel Goepfert

Contact : metmap@orbifly.com




SOURCES & CREDITS :

   NOAA